Time;durP1;ratioP1;P1;durP2;ratioP2;P2;SDS_P1;SDS_P2;PMS_P1;PMS_P2;Temp;Humidity;BMP_temperature;BMP_pressure;BME280_temperature;BME280_humidity;BME280_pressure;Samples;Min_cycle;Max_cycle;Signal;HPM_P1;HPM_P2
2023/10/30 00:01:48;;;;;;;10.80;2.58;;;;;;;12.15;85.25;99601.63;3599419;39;20056;-65
2023/10/30 00:04:14;;;;;;;8.27;2.17;;;;;;;12.16;85.14;99603.31;3595250;39;20207;-65
2023/10/30 00:06:40;;;;;;;8.02;2.00;;;;;;;12.16;84.75;99597.06;3602875;39;20050;-64
2023/10/30 00:09:06;;;;;;;9.57;2.00;;;;;;;12.11;85.02;99600.16;3601145;39;20055;-66
2023/10/30 00:11:32;;;;;;;13.27;2.45;;;;;;;12.15;85.15;99598.06;3595865;39;20059;-65
2023/10/30 00:13:58;;;;;;;10.00;2.30;;;;;;;12.15;85.01;99601.63;3602446;39;20095;-65
2023/10/30 00:16:24;;;;;;;10.07;2.38;;;;;;;12.16;85.38;99615.94;3603894;39;20045;-66
2023/10/30 00:18:50;;;;;;;6.50;2.25;;;;;;;12.10;85.26;99606.53;3600189;39;20047;-66
2023/10/30 00:21:15;;;;;;;7.95;2.40;;;;;;;12.13;85.38;99608.97;3601241;39;20137;-65
2023/10/30 00:23:41;;;;;;;11.02;2.35;;;;;;;12.16;85.17;99627.56;3600568;39;20071;-64
2023/10/30 00:26:07;;;;;;;6.70;2.05;;;;;;;12.14;85.20;99632.22;3602027;39;20043;-66
2023/10/30 00:28:34;;;;;;;8.77;2.53;;;;;;;12.11;85.30;99632.47;3601583;39;20087;-64
2023/10/30 00:31:02;;;;;;;12.48;2.30;;;;;;;12.12;85.50;99642.28;3598892;39;20333;-65
2023/10/30 00:33:28;;;;;;;10.63;2.17;;;;;;;12.11;86.13;99645.94;3599017;39;20182;-64
2023/10/30 00:35:53;;;;;;;12.32;2.50;;;;;;;12.12;85.93;99641.44;3601567;39;20413;-65
2023/10/30 00:38:19;;;;;;;9.75;1.98;;;;;;;12.10;86.08;99641.56;3600965;39;20059;-64
2023/10/30 00:40:45;;;;;;;9.68;2.60;;;;;;;12.10;86.36;99640.72;3599666;39;20287;-65
2023/10/30 00:43:11;;;;;;;13.57;2.47;;;;;;;11.69;86.25;99586.72;3598743;39;20303;-65
2023/10/30 00:45:36;;;;;;;7.68;2.30;;;;;;;12.11;86.42;99648.66;3599816;39;20051;-65
2023/10/30 00:48:02;;;;;;;7.75;2.00;;;;;;;12.12;86.21;99655.75;3597515;39;20120;-65
2023/10/30 00:50:28;;;;;;;9.23;2.38;;;;;;;11.57;86.36;99567.09;3593531;39;20054;-66
2023/10/30 00:52:53;;;;;;;10.40;2.15;;;;;;;11.59;86.40;99572.38;3601683;39;20071;-66
2023/10/30 00:55:19;;;;;;;9.60;2.55;;;;;;;12.14;86.61;99666.38;3600635;39;20077;-67
2023/10/30 00:57:44;;;;;;;10.20;2.17;;;;;;;12.16;86.52;99662.56;3591687;39;20311;-66
2023/10/30 01:00:11;;;;;;;10.65;2.38;;;;;;;11.71;86.54;99603.63;3598910;39;20051;-67
2023/10/30 01:02:37;;;;;;;13.02;2.50;;;;;;;12.15;86.87;99677.03;3597606;39;20124;-66
2023/10/30 01:05:03;;;;;;;11.98;2.10;;;;;;;12.13;86.59;99667.38;3595723;39;20059;-67
2023/10/30 01:07:29;;;;;;;10.25;2.30;;;;;;;11.83;86.85;99617.88;3600198;39;20108;-66
2023/10/30 01:09:55;;;;;;;6.35;1.90;;;;;;;12.19;87.07;99680.31;3590995;39;20055;-67
2023/10/30 01:12:21;;;;;;;12.55;2.50;;;;;;;11.86;86.92;99633.75;3601744;39;20062;-67
2023/10/30 01:14:48;;;;;;;7.65;2.17;;;;;;;11.75;87.39;99621.19;3598976;39;20433;-67
2023/10/30 01:17:13;;;;;;;9.52;2.40;;;;;;;12.21;86.86;99700.75;3600134;39;20079;-67
2023/10/30 01:19:39;;;;;;;9.63;2.38;;;;;;;12.21;87.11;99703.47;3596951;39;20051;-66
2023/10/30 01:22:05;;;;;;;10.57;2.38;;;;;;;12.21;87.18;99703.47;3600458;39;20067;-66
2023/10/30 01:24:31;;;;;;;6.38;2.17;;;;;;;12.22;87.20;99699.75;3591517;39;20402;-66
2023/10/30 01:26:56;;;;;;;12.40;2.47;;;;;;;12.22;87.35;99705.16;3599663;39;20085;-66
2023/10/30 01:29:22;;;;;;;9.38;1.95;;;;;;;12.23;87.17;99688.00;3593471;39;20062;-67
2023/10/30 01:31:47;;;;;;;10.98;2.60;;;;;;;12.25;87.04;99688.72;3601012;39;20055;-67
2023/10/30 01:34:13;;;;;;;10.55;2.17;;;;;;;12.24;86.92;99681.63;3598498;39;20051;-66
2023/10/30 01:36:38;;;;;;;9.50;2.40;;;;;;;12.24;86.99;99687.03;3595939;39;20047;-66
2023/10/30 01:39:04;;;;;;;6.38;1.70;;;;;;;12.27;86.77;99686.75;3599214;39;20156;-67
2023/10/30 01:41:30;;;;;;;10.25;2.25;;;;;;;12.27;86.66;99689.44;3599494;39;20048;-66
2023/10/30 01:43:55;;;;;;;13.13;2.60;;;;;;;12.26;86.83;99690.41;3599803;39;20125;-66
2023/10/30 01:46:21;;;;;;;10.52;2.70;;;;;;;12.26;86.74;99698.50;3592887;39;20051;-66
2023/10/30 01:48:47;;;;;;;10.10;3.13;;;;;;;12.24;86.85;99689.72;3601692;39;20071;-67
2023/10/30 01:51:17;;;;;;;12.10;2.30;;;;;;;12.29;87.04;99692.00;3601731;39;20066;-67
2023/10/30 01:53:45;;;;;;;10.02;2.45;;;;;;;12.23;86.21;99689.84;3600348;39;20091;-66
2023/10/30 01:56:11;;;;;;;10.65;2.33;;;;;;;12.30;86.04;99691.88;3603745;39;20055;-67
2023/10/30 01:58:37;;;;;;;6.97;1.95;;;;;;;12.30;85.87;99697.28;3601318;39;20118;-67
2023/10/30 02:01:04;;;;;;;9.05;2.22;;;;;;;12.24;85.70;99702.31;3600613;39;20129;-66
2023/10/30 02:03:29;;;;;;;9.75;2.50;;;;;;;12.32;85.90;99714.13;3600502;39;20051;-66
2023/10/30 02:05:55;;;;;;;11.02;2.17;;;;;;;11.65;85.34;99597.91;3601456;39;20517;-66
2023/10/30 02:08:21;;;;;;;11.05;2.53;;;;;;;12.36;85.26;99706.63;3603154;39;20055;-67
2023/10/30 02:10:47;;;;;;;5.97;1.90;;;;;;;12.39;84.92;99700.13;3603160;39;20486;-66
2023/10/30 02:13:13;;;;;;;8.18;2.15;;;;;;;12.37;84.79;99702.97;3602732;39;20055;-67
2023/10/30 02:15:38;;;;;;;9.45;2.25;;;;;;;12.38;84.71;99709.22;3600368;39;20047;-67
2023/10/30 02:18:05;;;;;;;6.97;2.30;;;;;;;12.39;84.36;99708.22;3598327;39;20059;-66
2023/10/30 02:20:32;;;;;;;6.78;1.90;;;;;;;11.90;84.30;99620.91;3601406;39;20397;-67
2023/10/30 02:22:58;;;;;;;9.57;2.30;;;;;;;12.38;84.23;99707.38;3600077;39;20124;-67
2023/10/30 02:25:25;;;;;;;9.13;2.45;;;;;;;12.38;84.43;99703.81;3603264;39;20105;-66
2023/10/30 02:27:54;;;;;;;9.07;2.40;;;;;;;12.38;83.75;99701.97;3602257;39;20366;-67
2023/10/30 02:30:20;;;;;;;8.90;2.15;;;;;;;12.38;83.90;99701.97;3601937;39;20084;-67
2023/10/30 02:32:47;;;;;;;8.98;1.73;;;;;;;12.38;83.74;99695.75;3597601;39;20091;-67
2023/10/30 02:35:15;;;;;;;12.45;2.72;;;;;;;12.37;83.95;99702.09;3598523;39;20366;-67
2023/10/30 02:37:41;;;;;;;5.28;1.80;;;;;;;12.37;84.14;99699.41;3597191;39;20381;-65
2023/10/30 02:40:08;;;;;;;8.05;2.08;;;;;;;12.37;84.13;99696.72;3599275;39;20064;-65
2023/10/30 02:42:35;;;;;;;7.72;1.65;;;;;;;12.31;84.20;99680.09;3603275;39;20054;-64
2023/10/30 02:45:01;;;;;;;12.18;2.10;;;;;;;12.32;84.34;99679.09;3603759;39;20047;-65
2023/10/30 02:47:28;;;;;;;8.18;1.75;;;;;;;12.36;84.39;99692.31;3601747;39;20287;-65
2023/10/30 02:49:54;;;;;;;7.43;2.00;;;;;;;12.35;84.35;99688.78;3596442;39;20334;-65
2023/10/30 02:52:19;;;;;;;8.38;2.17;;;;;;;12.36;84.56;99692.31;3600381;39;20054;-66
2023/10/30 02:54:45;;;;;;;10.10;2.22;;;;;;;12.35;84.83;99690.63;3600552;39;20075;-66
2023/10/30 02:57:11;;;;;;;10.00;2.08;;;;;;;12.14;84.74;99659.16;3590453;39;20055;-66
2023/10/30 02:59:37;;;;;;;8.82;2.15;;;;;;;12.34;84.82;99689.78;3601714;39;20459;-66
2023/10/30 03:02:03;;;;;;;10.15;2.20;;;;;;;12.34;84.49;99686.19;3603121;39;20074;-66
2023/10/30 03:04:30;;;;;;;10.60;2.20;;;;;;;11.55;84.94;99554.78;3602350;39;20387;-66
2023/10/30 03:06:58;;;;;;;5.50;1.92;;;;;;;12.32;85.16;99687.19;3596726;39;20048;-64
2023/10/30 03:09:25;;;;;;;9.00;2.08;;;;;;;12.37;84.94;99683.22;3601764;39;20047;-64
2023/10/30 03:11:51;;;;;;;8.00;2.10;;;;;;;11.72;84.72;99580.22;3600916;39;20058;-64
2023/10/30 03:14:16;;;;;;;10.40;2.35;;;;;;;12.38;85.21;99693.03;3602347;39;20055;-66
2023/10/30 03:16:42;;;;;;;9.82;2.30;;;;;;;11.77;85.25;99596.84;3601600;39;20406;-66
2023/10/30 03:19:09;;;;;;;12.20;2.20;;;;;;;11.89;85.31;99622.72;3602566;39;20047;-66
2023/10/30 03:21:34;;;;;;;8.00;1.77;;;;;;;12.29;85.54;99695.53;3601598;39;20124;-65
2023/10/30 03:24:00;;;;;;;9.50;2.35;;;;;;;12.36;85.57;99705.78;3602679;39;20067;-66
2023/10/30 03:26:25;;;;;;;9.07;2.03;;;;;;;12.30;85.71;99697.28;3600716;39;20417;-65
2023/10/30 03:28:51;;;;;;;11.50;2.33;;;;;;;12.35;85.67;99714.88;3600048;39;20326;-66
2023/10/30 03:31:17;;;;;;;8.65;2.03;;;;;;;12.28;85.59;99704.63;3598871;39;20091;-66
2023/10/30 03:33:42;;;;;;;6.68;2.10;;;;;;;12.26;85.51;99706.59;3598789;39;20067;-67
2023/10/30 03:36:08;;;;;;;7.35;2.00;;;;;;;12.25;86.11;99710.28;3604097;39;20066;-66
2023/10/30 03:38:34;;;;;;;8.80;2.45;;;;;;;12.27;86.27;99702.03;3600655;39;20071;-68
2023/10/30 03:41:00;;;;;;;10.88;2.38;;;;;;;12.22;86.65;99702.47;3603391;39;20090;-67
2023/10/30 03:43:26;;;;;;;8.13;2.10;;;;;;;12.19;86.93;99700.03;3601804;39;20275;-67
2023/10/30 03:45:52;;;;;;;8.85;2.30;;;;;;;12.17;86.71;99701.16;3600223;39;20058;-67
2023/10/30 03:48:17;;;;;;;8.43;2.00;;;;;;;12.14;87.13;99702.25;3600511;39;20302;-67
2023/10/30 03:50:43;;;;;;;11.30;2.10;;;;;;;12.09;87.51;99699.13;3601628;39;20048;-66
2023/10/30 03:53:09;;;;;;;11.45;2.08;;;;;;;12.07;87.50;99701.09;3601580;39;20128;-67
2023/10/30 03:55:35;;;;;;;7.75;1.98;;;;;;;12.04;87.59;99709.44;3593048;39;21180;-65
2023/10/30 03:58:02;;;;;;;9.00;1.80;;;;;;;12.02;87.83;99714.09;3600656;39;20051;-65
2023/10/30 04:00:28;;;;;;;7.78;2.17;;;;;;;11.56;88.14;99637.22;3601699;39;20051;-65
2023/10/30 04:02:54;;;;;;;9.40;2.30;;;;;;;11.71;88.43;99662.84;3600495;39;20055;-65
2023/10/30 04:05:20;;;;;;;10.10;2.20;;;;;;;11.95;88.43;99707.53;3599051;39;20047;-65
2023/10/30 04:07:46;;;;;;;8.20;2.22;;;;;;;11.46;88.71;99639.84;3603134;39;20058;-66
2023/10/30 04:10:11;;;;;;;11.82;2.33;;;;;;;11.84;89.30;99701.22;3601513;39;20132;-66
2023/10/30 04:12:38;;;;;;;8.32;2.13;;;;;;;11.62;89.11;99658.22;3593560;39;20417;-66
2023/10/30 04:15:04;;;;;;;10.13;1.98;;;;;;;11.85;89.40;99707.44;3602114;39;20383;-67
2023/10/30 04:17:30;;;;;;;9.13;2.22;;;;;;;11.81;89.56;99693.38;3597227;39;20043;-66
2023/10/30 04:19:55;;;;;;;6.95;1.92;;;;;;;11.83;89.57;99707.56;3600644;39;20063;-67
2023/10/30 04:22:21;;;;;;;9.20;2.08;;;;;;;11.81;89.32;99700.59;3600759;39;20050;-66
2023/10/30 04:24:47;;;;;;;12.27;2.15;;;;;;;11.80;89.96;99699.75;3601483;39;20050;-67
2023/10/30 04:27:13;;;;;;;12.52;2.40;;;;;;;11.78;90.12;99698.16;3602020;39;20162;-65
2023/10/30 04:29:41;;;;;;;8.27;2.28;;;;;;;11.80;90.09;99702.44;3599109;39;20445;-67
2023/10/30 04:32:07;;;;;;;11.45;2.08;;;;;;;11.75;90.07;99711.88;3600804;39;20047;-65
2023/10/30 04:34:33;;;;;;;12.45;2.50;;;;;;;11.77;89.75;99716.16;3600882;39;20058;-64
2023/10/30 04:36:58;;;;;;;9.77;2.15;;;;;;;11.72;90.29;99702.22;3602178;39;20050;-65
2023/10/30 04:39:24;;;;;;;10.25;1.80;;;;;;;11.75;89.85;99717.28;3598453;39;20290;-65
2023/10/30 04:41:50;;;;;;;11.02;2.00;;;;;;;11.72;90.26;99713.00;3600391;39;20058;-66
2023/10/30 04:44:15;;;;;;;10.20;2.05;;;;;;;11.72;90.49;99713.00;3599429;39;20058;-66
2023/10/30 04:46:41;;;;;;;10.55;2.00;;;;;;;11.76;90.42;99714.44;3600782;39;20390;-66
2023/10/30 04:49:07;;;;;;;11.35;1.88;;;;;;;11.78;90.45;99717.88;3599212;39;20053;-65
2023/10/30 04:51:33;;;;;;;10.10;1.80;;;;;;;11.77;90.15;99718.84;3591878;39;20093;-67
2023/10/30 04:53:59;;;;;;;9.10;2.13;;;;;;;11.77;90.16;99716.16;3598539;39;20050;-65
2023/10/30 04:56:24;;;;;;;11.43;2.13;;;;;;;11.74;90.11;99713.72;3602364;39;20055;-67
2023/10/30 04:58:50;;;;;;;9.60;2.30;;;;;;;11.73;90.39;99705.75;3600472;39;20274;-65
2023/10/30 05:01:16;;;;;;;10.70;2.17;;;;;;;11.74;90.45;99707.50;3595590;39;20062;-65
2023/10/30 05:03:42;;;;;;;13.30;2.90;;;;;;;11.73;90.19;99703.91;3595690;39;20078;-65
2023/10/30 05:06:07;;;;;;;11.07;4.68;;;;;;;11.72;90.21;99706.75;3601447;39;20089;-66
2023/10/30 05:08:35;;;;;;;14.40;3.03;;;;;;;11.70;89.97;99701.50;3599012;39;20055;-64
2023/10/30 05:11:01;;;;;;;7.22;1.80;;;;;;;11.68;90.44;99708.84;3604074;39;20091;-64
2023/10/30 05:13:27;;;;;;;15.35;2.63;;;;;;;11.59;90.25;99691.63;3591517;39;20305;-65
2023/10/30 05:15:56;;;;;;;9.23;2.08;;;;;;;11.63;90.50;99714.63;3598720;39;20047;-64
2023/10/30 05:18:24;;;;;;;10.57;2.17;;;;;;;11.61;90.57;99707.69;3596101;39;20044;-64
2023/10/30 05:20:50;;;;;;;13.50;2.20;;;;;;;11.61;90.44;99715.75;3602175;39;20063;-65
2023/10/30 05:23:16;;;;;;;7.95;1.90;;;;;;;11.07;90.48;99634.13;3600464;39;20321;-65
2023/10/30 05:25:42;;;;;;;8.02;1.70;;;;;;;11.46;90.96;99692.81;3600797;39;20062;-65
2023/10/30 05:28:08;;;;;;;8.40;2.08;;;;;;;11.53;90.39;99707.44;3601522;39;20054;-65
2023/10/30 05:30:34;;;;;;;8.35;2.10;;;;;;;11.49;90.60;99706.00;3604247;39;20051;-65
2023/10/30 05:33:01;;;;;;;7.60;2.53;;;;;;;11.44;90.91;99694.75;3603249;39;20055;-64
2023/10/30 05:35:26;;;;;;;8.15;1.80;;;;;;;11.41;91.67;99690.50;3606792;39;20062;-64
2023/10/30 05:37:52;;;;;;;9.13;2.53;;;;;;;11.37;91.64;99687.19;3605030;39;20062;-65
2023/10/30 05:40:18;;;;;;;6.78;1.90;;;;;;;11.30;91.17;99686.00;3608053;39;20352;-66
2023/10/30 05:42:44;;;;;;;8.80;2.35;;;;;;;11.33;92.20;99695.66;3604778;39;20066;-64
2023/10/30 05:45:10;;;;;;;9.45;2.45;;;;;;;11.29;91.74;99687.00;3610254;39;20309;-65
2023/10/30 05:47:36;;;;;;;10.52;1.75;;;;;;;11.26;93.00;99698.03;3607510;39;20047;-65
2023/10/30 05:50:01;;;;;;;9.35;2.10;;;;;;;11.25;93.12;99701.66;3609446;39;20095;-65
2023/10/30 05:52:27;;;;;;;9.43;1.98;;;;;;;11.15;92.43;99679.22;3604993;39;20067;-64
2023/10/30 05:54:53;;;;;;;8.65;1.88;;;;;;;11.20;92.46;99697.69;3603161;39;20054;-64
2023/10/30 05:57:19;;;;;;;11.77;1.70;;;;;;;11.16;92.43;99688.97;3604396;39;20358;-65
2023/10/30 05:59:44;;;;;;;9.52;2.03;;;;;;;11.12;92.73;99691.06;3592641;39;20129;-64
2023/10/30 06:02:10;;;;;;;10.05;2.20;;;;;;;11.02;92.88;99676.69;3603329;39;20068;-65
2023/10/30 06:04:35;;;;;;;10.02;2.17;;;;;;;11.09;93.06;99685.94;3593023;39;20051;-64
2023/10/30 06:07:01;;;;;;;8.93;2.47;;;;;;;11.05;93.43;99672.88;3607049;39;20082;-65
2023/10/30 06:09:27;;;;;;;11.70;2.80;;;;;;;10.56;93.49;99596.25;3605103;39;20087;-64
2023/10/30 06:11:53;;;;;;;6.63;1.80;;;;;;;11.07;94.44;99682.53;3593929;39;20364;-65
2023/10/30 06:14:18;;;;;;;8.88;2.55;;;;;;;11.09;94.17;99682.41;3598019;39;20063;-64
2023/10/30 06:16:45;;;;;;;8.02;1.90;;;;;;;11.11;94.80;99680.44;3604489;39;20067;-64
2023/10/30 06:19:11;;;;;;;10.02;1.92;;;;;;;11.12;94.25;99684.84;3602524;39;20181;-65
2023/10/30 06:21:40;;;;;;;10.10;2.05;;;;;;;11.11;94.62;99702.81;3596608;39;20063;-65
2023/10/30 06:24:09;;;;;;;11.90;2.22;;;;;;;10.62;94.59;99614.56;3602278;39;20044;-65
2023/10/30 06:26:38;;;;;;;12.80;2.40;;;;;;;11.13;94.64;99705.38;3601864;39;20498;-65
2023/10/30 06:29:04;;;;;;;7.50;1.73;;;;;;;11.15;94.60;99709.66;3602980;39;20371;-65
2023/10/30 06:31:29;;;;;;;7.60;1.67;;;;;;;11.13;94.25;99710.75;3603682;39;20055;-65
2023/10/30 06:33:55;;;;;;;11.15;2.70;;;;;;;10.66;94.39;99638.38;3603699;39;20058;-63
2023/10/30 06:36:21;;;;;;;13.35;3.17;;;;;;;11.18;94.86;99716.63;3603988;39;20132;-64
2023/10/30 06:38:47;;;;;;;11.65;2.28;;;;;;;11.19;94.44;99723.69;3603370;39;20052;-66
2023/10/30 06:41:14;;;;;;;10.13;2.20;;;;;;;11.23;94.36;99722.47;3606005;39;20413;-65
2023/10/30 06:43:39;;;;;;;11.77;2.40;;;;;;;11.25;94.14;99730.41;3605934;39;20059;-65
2023/10/30 06:46:06;;;;;;;8.40;1.85;;;;;;;10.75;94.04;99652.03;3606162;39;20053;-66
2023/10/30 06:48:32;;;;;;;8.35;2.03;;;;;;;11.27;94.37;99741.91;3602582;39;20047;-65
2023/10/30 06:50:59;;;;;;;6.97;1.65;;;;;;;10.81;94.26;99663.16;3600311;39;20046;-65
2023/10/30 06:53:25;;;;;;;8.73;2.05;;;;;;;11.29;94.27;99732.75;3604843;39;20058;-65
2023/10/30 06:55:52;;;;;;;9.00;1.90;;;;;;;10.87;93.72;99668.03;3603558;39;20094;-65
2023/10/30 06:58:18;;;;;;;9.60;2.20;;;;;;;10.90;93.98;99669.63;3603359;39;20077;-63
2023/10/30 07:00:45;;;;;;;8.80;2.88;;;;;;;11.34;93.83;99752.03;3604295;39;20051;-64
2023/10/30 07:03:11;;;;;;;9.82;2.13;;;;;;;11.38;93.47;99752.63;3595485;39;20386;-64
2023/10/30 07:05:36;;;;;;;9.95;2.10;;;;;;;11.38;93.26;99753.50;3604251;39;20066;-63
2023/10/30 07:08:03;;;;;;;6.88;1.77;;;;;;;11.38;93.78;99744.56;3602825;39;20059;-65
2023/10/30 07:10:29;;;;;;;13.05;2.15;;;;;;;11.36;93.51;99743.84;3594871;39;20959;-66
2023/10/30 07:12:54;;;;;;;10.80;2.40;;;;;;;11.39;93.92;99754.34;3599102;39;20580;-66
2023/10/30 07:15:20;;;;;;;9.32;1.92;;;;;;;10.96;93.81;99676.31;3607717;39;20046;-64
2023/10/30 07:17:47;;;;;;;11.43;2.00;;;;;;;11.45;93.77;99753.84;3605288;39;20082;-65
2023/10/30 07:20:14;;;;;;;10.18;2.00;;;;;;;11.46;93.86;99752.00;3602661;39;20395;-65
2023/10/30 07:22:39;;;;;;;7.72;1.92;;;;;;;11.48;93.75;99758.09;3601811;39;20443;-65
2023/10/30 07:25:06;;;;;;;9.70;2.20;;;;;;;11.49;93.66;99746.38;3604452;39;20086;-65
2023/10/30 07:27:33;;;;;;;12.00;2.10;;;;;;;11.54;93.36;99757.59;3604217;39;20053;-64
2023/10/30 07:29:59;;;;;;;11.18;2.35;;;;;;;11.55;93.15;99759.31;3605102;39;20103;-64
2023/10/30 07:32:25;;;;;;;9.18;2.30;;;;;;;11.54;93.46;99758.44;3601939;39;20091;-65
2023/10/30 07:34:51;;;;;;;8.27;2.33;;;;;;;11.60;93.45;99771.41;3603005;39;20059;-65
2023/10/30 07:37:16;;;;;;;7.32;2.70;;;;;;;11.67;93.18;99774.47;3600807;39;20302;-65
2023/10/30 07:39:43;;;;;;;10.70;2.40;;;;;;;11.74;93.83;99775.66;3599406;39;20074;-65
2023/10/30 07:42:09;;;;;;;7.38;2.28;;;;;;;11.37;93.43;99706.03;3605848;39;20058;-65
2023/10/30 07:44:36;;;;;;;10.55;2.10;;;;;;;11.99;92.46;99789.78;3607103;39;20119;-65
2023/10/30 07:47:03;;;;;;;12.75;2.40;;;;;;;12.02;91.58;99776.03;3600547;39;20372;-65
2023/10/30 07:49:28;;;;;;;8.90;1.95;;;;;;;12.13;90.97;99776.00;3597045;39;20051;-65
2023/10/30 07:51:54;;;;;;;6.60;2.13;;;;;;;11.74;90.36;99699.41;3602734;39;20059;-65
2023/10/30 07:54:20;;;;;;;13.45;3.70;;;;;;;12.30;90.32;99767.34;3599986;39;20059;-67
2023/10/30 07:56:46;;;;;;;10.55;3.10;;;;;;;12.35;89.73;99758.00;3601111;39;20048;-66
2023/10/30 07:59:12;;;;;;;10.38;3.13;;;;;;;12.49;89.14;99776.50;3603343;39;20062;-65
2023/10/30 08:01:38;;;;;;;10.13;2.95;;;;;;;12.57;88.93;99774.00;3604925;39;20328;-65
2023/10/30 08:04:06;;;;;;;9.25;2.83;;;;;;;12.04;88.27;99674.41;3603305;39;20500;-65
2023/10/30 08:06:32;;;;;;;10.05;2.58;;;;;;;12.22;87.59;99701.63;3607422;39;20043;-66
2023/10/30 08:08:58;;;;;;;7.68;2.90;;;;;;;12.69;87.24;99777.47;3600698;39;20371;-63
2023/10/30 08:11:24;;;;;;;11.85;2.70;;;;;;;12.76;87.24;99774.09;3600225;39;20050;-63
2023/10/30 08:13:49;;;;;;;10.68;2.90;;;;;;;12.82;87.43;99778.09;3605731;39;20072;-63
2023/10/30 08:16:15;;;;;;;11.48;2.85;;;;;;;12.45;86.86;99705.84;3604761;39;20054;-64
2023/10/30 08:18:41;;;;;;;12.57;3.33;;;;;;;12.96;86.83;99779.56;3606352;39;20066;-63
2023/10/30 08:21:09;;;;;;;8.68;2.72;;;;;;;13.05;86.80;99777.91;3598995;39;20087;-64
2023/10/30 08:23:37;;;;;;;8.23;2.80;;;;;;;13.13;86.37;99776.25;3602024;39;20079;-63
2023/10/30 08:26:05;;;;;;;8.95;2.80;;;;;;;13.26;86.01;99781.44;3600596;39;20085;-64
2023/10/30 08:28:31;;;;;;;7.13;2.40;;;;;;;13.35;85.28;99790.53;3601422;39;20054;-65
2023/10/30 08:30:56;;;;;;;7.30;1.83;;;;;;;13.38;85.62;99787.53;3599691;39;20059;-65
2023/10/30 08:33:22;;;;;;;6.80;1.83;;;;;;;13.44;84.90;99797.78;3603308;39;20061;-66
2023/10/30 08:35:48;;;;;;;10.23;2.17;;;;;;;13.52;84.95;99794.41;3603349;39;20345;-65
2023/10/30 08:38:14;;;;;;;10.10;2.15;;;;;;;13.57;84.58;99787.59;3603350;39;20487;-65
2023/10/30 08:40:39;;;;;;;8.50;2.42;;;;;;;13.64;84.48;99794.16;3600242;39;20055;-65
2023/10/30 08:43:05;;;;;;;6.60;2.05;;;;;;;13.72;84.05;99781.78;3603160;39;20209;-65
2023/10/30 08:45:31;;;;;;;7.68;2.42;;;;;;;13.83;84.23;99789.78;3599953;39;20039;-65
2023/10/30 08:47:56;;;;;;;9.02;2.72;;;;;;;13.85;83.30;99783.22;3592148;39;20051;-65
2023/10/30 08:50:22;;;;;;;9.35;3.33;;;;;;;13.86;83.13;99789.47;3600110;39;20050;-64
2023/10/30 08:52:48;;;;;;;9.20;3.63;;;;;;;13.91;82.75;99790.75;3600405;39;20047;-65
2023/10/30 08:55:14;;;;;;;10.80;2.20;;;;;;;13.77;82.86;99757.94;3601695;39;20059;-65
2023/10/30 08:57:40;;;;;;;7.70;2.10;;;;;;;13.56;83.49;99717.53;3599120;39;20091;-65
2023/10/30 09:00:06;;;;;;;8.50;1.73;;;;;;;13.35;82.73;99675.34;3601388;39;20055;-64
2023/10/30 09:02:33;;;;;;;7.70;2.10;;;;;;;13.68;82.95;99727.22;3600114;39;20042;-65
2023/10/30 09:04:59;;;;;;;10.65;2.22;;;;;;;14.04;83.04;99790.47;3595894;39;20043;-65
2023/10/30 09:07:25;;;;;;;9.27;2.17;;;;;;;14.07;82.94;99790.19;3602462;39;20061;-65
2023/10/30 09:09:51;;;;;;;7.65;1.88;;;;;;;14.05;82.99;99789.50;3601456;39;20363;-65
2023/10/30 09:12:17;;;;;;;5.82;1.80;;;;;;;14.09;83.61;99795.47;3594148;39;20277;-64
2023/10/30 09:14:43;;;;;;;9.13;2.55;;;;;;;14.17;83.55;99804.53;3599570;39;20128;-64
2023/10/30 09:17:09;;;;;;;10.27;2.00;;;;;;;14.16;83.07;99796.59;3602316;39;20073;-65
2023/10/30 09:19:36;;;;;;;8.50;2.17;;;;;;;14.09;83.32;99779.25;3591520;39;20437;-64
2023/10/30 09:22:03;;;;;;;7.43;2.35;;;;;;;14.19;82.25;99790.03;3601543;39;20059;-64
2023/10/30 09:24:28;;;;;;;8.02;2.33;;;;;;;14.17;82.56;99791.03;3600725;39;20144;-64
2023/10/30 09:26:54;;;;;;;4.63;1.77;;;;;;;14.20;82.98;99778.22;3601951;39;20422;-63
2023/10/30 09:29:19;;;;;;;6.18;1.77;;;;;;;14.16;83.20;99770.41;3598574;39;20055;-63
2023/10/30 09:31:46;;;;;;;5.45;1.52;;;;;;;13.67;83.24;99699.34;3599097;39;20055;-65
2023/10/30 09:34:12;;;;;;;9.30;1.90;;;;;;;14.19;83.03;99784.63;3601484;39;20366;-64
2023/10/30 09:36:38;;;;;;;10.05;2.03;;;;;;;14.15;83.97;99779.53;3596955;39;20133;-65
2023/10/30 09:39:03;;;;;;;9.48;2.30;;;;;;;14.15;84.20;99790.34;3600750;39;20298;-64
2023/10/30 09:41:38;;;;;;;13.00;2.33;;;;;;;14.11;84.27;99786.22;3601487;39;20152;-63
2023/10/30 09:44:09;;;;;;;7.85;2.40;;;;;;;14.14;84.51;99787.75;3601066;39;20103;-63
2023/10/30 09:46:39;;;;;;;11.93;2.30;;;;;;;14.05;83.95;99767.88;3601741;39;20267;-63
2023/10/30 09:49:06;;;;;;;13.00;2.78;;;;;;;14.11;84.35;99777.22;3600355;39;20056;-66
2023/10/30 09:51:34;;;;;;;7.72;2.05;;;;;;;14.15;83.58;99781.38;3600021;39;20056;-63
2023/10/30 09:54:01;;;;;;;5.80;1.35;;;;;;;14.22;83.61;99789.75;3598405;39;20056;-67
2023/10/30 09:56:28;;;;;;;5.43;1.95;;;;;;;14.10;83.19;99760.16;3592237;39;20047;-66
2023/10/30 09:58:54;;;;;;;5.07;1.95;;;;;;;14.09;84.08;99741.41;3601204;39;20057;-66
2023/10/30 10:01:20;;;;;;;9.80;3.10;;;;;;;14.18;83.98;99764.88;3600956;39;20378;-65
2023/10/30 10:03:46;;;;;;;7.32;1.90;;;;;;;14.23;83.71;99754.47;3600970;39;20055;-63
2023/10/30 10:06:12;;;;;;;7.70;1.70;;;;;;;14.27;84.00;99752.31;3599664;39;20070;-63
2023/10/30 10:08:42;;;;;;;6.63;1.77;;;;;;;13.83;83.93;99665.50;3599159;39;20064;-64
2023/10/30 10:11:08;;;;;;;8.25;2.95;;;;;;;14.35;83.83;99747.06;3602284;39;20434;-64
2023/10/30 10:13:37;;;;;;;5.90;1.77;;;;;;;14.41;83.60;99749.19;3600340;39;20491;-66
2023/10/30 10:16:03;;;;;;;9.60;1.65;;;;;;;13.90;82.75;99663.94;3603286;39;20047;-66
2023/10/30 10:18:32;;;;;;;5.25;1.63;;;;;;;14.35;81.99;99730.81;3601573;39;20049;-66
2023/10/30 10:21:04;;;;;;;7.45;1.95;;;;;;;14.13;82.97;99691.47;3603316;39;20081;-65
2023/10/30 10:23:36;;;;;;;7.50;1.87;;;;;;;14.49;82.92;99751.97;3601483;39;20293;-66
2023/10/30 10:26:14;;;;;;;8.70;2.35;;;;;;;14.54;82.74;99748.88;3599275;39;20269;-66
2023/10/30 10:28:43;;;;;;;8.15;1.85;;;;;;;14.55;82.87;99762.25;3598119;39;20128;-66
2023/10/30 10:31:09;;;;;;;7.10;2.05;;;;;;;14.59;83.25;99754.72;3601178;39;20051;-66
2023/10/30 10:33:35;;;;;;;5.22;1.60;;;;;;;14.68;81.72;99750.25;3599220;39;20447;-64
2023/10/30 10:36:04;;;;;;;7.70;1.90;;;;;;;14.68;82.28;99752.97;3604182;39;20078;-64
2023/10/30 10:38:31;;;;;;;7.60;2.05;;;;;;;14.71;82.16;99747.25;3601368;39;20063;-63
2023/10/30 10:40:58;;;;;;;5.63;1.55;;;;;;;14.74;82.29;99746.97;3601973;39;20434;-64
2023/10/30 10:43:28;;;;;;;5.78;1.75;;;;;;;14.76;81.84;99751.22;3601594;39;20063;-64
2023/10/30 10:45:56;;;;;;;6.82;1.48;;;;;;;14.78;81.28;99746.53;3601413;39;20379;-64
2023/10/30 10:48:27;;;;;;;6.10;1.60;;;;;;;14.85;81.68;99752.19;3600379;39;20719;-64
2023/10/30 10:50:57;;;;;;;5.90;1.83;;;;;;;14.87;81.39;99752.88;3594400;39;20067;-64
2023/10/30 10:53:27;;;;;;;4.93;1.52;;;;;;;14.92;80.77;99752.44;3602394;39;20052;-64
2023/10/30 10:56:03;;;;;;;8.35;2.47;;;;;;;14.90;81.16;99746.31;3600832;39;20433;-64
2023/10/30 10:58:50;;;;;;;5.60;1.80;;;;;;;14.90;81.27;99735.50;3593307;39;20051;-64
2023/10/30 11:01:18;;;;;;;6.57;1.60;;;;;;;14.91;80.12;99742.66;3600099;39;20051;-66
2023/10/30 11:03:45;;;;;;;6.80;1.83;;;;;;;14.47;81.07;99664.75;3598378;39;20082;-66
2023/10/30 11:06:14;;;;;;;11.35;1.70;;;;;;;14.95;80.96;99744.03;3600040;39;20047;-66
2023/10/30 11:09:11;;;;;;;7.07;2.00;;;;;;;14.51;80.70;99668.91;3593873;39;20079;-66
2023/10/30 11:12:07;;;;;;;7.43;2.35;;;;;;;14.96;81.34;99738.47;3601366;39;20067;-66
2023/10/30 11:15:03;;;;;;;4.95;1.42;;;;;;;14.93;81.24;99736.06;3588043;39;20083;-66
2023/10/30 11:17:28;;;;;;;3.95;1.45;;;;;;;14.95;82.18;99728.66;3599723;39;20055;-66
2023/10/30 11:20:08;;;;;;;5.25;1.15;;;;;;;14.94;81.14;99732.38;3603865;39;20081;-64
2023/10/30 11:22:41;;;;;;;3.75;1.20;;;;;;;14.89;80.50;99723.84;3604554;39;20054;-66
2023/10/30 11:25:44;;;;;;;4.30;1.45;;;;;;;14.85;80.80;99717.88;3600238;39;20392;-66
2023/10/30 11:28:10;;;;;;;6.07;1.42;;;;;;;14.47;81.73;99631.47;3602785;39;20382;-66